Time;durP1;ratioP1;P1;durP2;ratioP2;P2;SDS_P1;SDS_P2;PMS_P1;PMS_P2;Temp;Humidity;BMP_temperature;BMP_pressure;BME280_temperature;BME280_humidity;BME280_pressure;Samples;Min_cycle;Max_cycle;Signal;HPM_P1;HPM_P2
2021/05/18 00:02:57;;;;;;;0.43;0.43;;;18.90;40.20;;;;;;8329856;28;20117;-48
2021/05/18 00:06:58;;;;;;;0.38;0.35;;;18.90;40.20;;;;;;8313133;28;20042;-50
2021/05/18 00:15:22;;;;;;;0.70;0.60;;;18.90;40.70;;;;;;8312170;28;20397;-49
2021/05/18 00:19:23;;;;;;;0.52;0.50;;;18.90;40.20;;;;;;8304399;28;20034;-49
2021/05/18 00:23:23;;;;;;;0.75;0.50;;;18.80;40.20;;;;;;8297618;28;20072;-51
2021/05/18 00:27:24;;;;;;;0.40;0.40;;;18.90;40.20;;;;;;8298197;28;20561;-49
2021/05/18 00:31:25;;;;;;;1.15;0.40;;;18.80;40.20;;;;;;8295721;28;20037;-49
2021/05/18 00:35:25;;;;;;;0.60;0.50;;;18.80;40.20;;;;;;8318511;28;20505;-51
2021/05/18 00:39:26;;;;;;;0.50;0.50;;;18.80;40.20;;;;;;8295622;28;20176;-50
2021/05/18 00:43:27;;;;;;;0.60;0.40;;;18.80;40.20;;;;;;8299877;28;20525;-49
2021/05/18 00:47:27;;;;;;;0.37;0.37;;;18.80;40.20;;;;;;8293758;28;20057;-53
2021/05/18 00:51:28;;;;;;;0.83;0.40;;;18.80;40.20;;;;;;8295071;28;20038;-52
2021/05/18 00:59:30;;;;;;;0.20;0.20;;;18.80;40.20;;;;;;8299705;28;20033;-52
2021/05/18 01:03:32;;;;;;;1.08;0.43;;;18.80;40.30;;;;;;8295006;28;20033;-49
2021/05/18 01:07:34;;;;;;;0.50;0.40;;;18.80;40.20;;;;;;8293014;28;20503;-50
2021/05/18 01:11:35;;;;;;;1.38;0.43;;;18.80;40.30;;;;;;8303803;28;20441;-51
2021/05/18 01:15:38;;;;;;;1.27;0.52;;;18.80;40.30;;;;;;8327198;28;20089;-49
2021/05/18 01:19:39;;;;;;;0.70;0.50;;;18.80;40.30;;;;;;8329751;28;20128;-51
2021/05/18 01:23:41;;;;;;;0.30;0.30;;;18.80;40.20;;;;;;8326878;28;20038;-49
2021/05/18 01:27:41;;;;;;;0.63;0.47;;;18.80;40.30;;;;;;8326738;28;20065;-49
2021/05/18 01:31:44;;;;;;;0.40;0.37;;;18.80;40.30;;;;;;8322198;28;20068;-50
2021/05/18 01:35:44;;;;;;;0.82;0.45;;;18.70;40.20;;;;;;8298512;28;20534;-50
2021/05/18 01:42:46;;;;;;;0.60;0.40;;;18.80;40.30;;;;;;8293664;28;20038;-52
2021/05/18 01:44:10;;;;;;;0.90;0.45;;;18.80;40.30;;;;;;8318921;28;20044;-52
2021/05/18 01:48:14;;;;;;;1.30;0.50;;;18.70;40.30;;;;;;8326253;28;20136;-49
2021/05/18 01:52:15;;;;;;;0.50;0.40;;;18.70;40.30;;;;;;8325785;28;20041;-48
2021/05/18 01:56:31;;;;;;;0.73;0.33;;;18.70;40.30;;;;;;8328451;28;20148;-49
2021/05/18 02:00:34;;;;;;;0.52;0.40;;;18.70;40.30;;;;;;8325696;28;20068;-50
2021/05/18 02:04:58;;;;;;;0.55;0.30;;;18.70;40.30;;;;;;8323879;28;20040;-50
2021/05/18 02:08:59;;;;;;;0.30;0.30;;;18.70;40.30;;;;;;8325094;28;20067;-49
2021/05/18 02:12:59;;;;;;;0.88;0.50;;;18.70;40.30;;;;;;8325248;28;20060;-50
2021/05/18 02:25:59;;;;;;;0.82;0.43;;;18.70;40.40;;;;;;8329403;28;20056;-52
2021/05/18 02:30:00;;;;;;;0.43;0.37;;;18.70;40.40;;;;;;8305787;28;20140;-49
2021/05/18 02:34:00;;;;;;;0.47;0.40;;;18.70;40.40;;;;;;8326051;28;20033;-52
2021/05/18 02:38:01;;;;;;;0.93;0.80;;;18.70;40.40;;;;;;8329090;28;20140;-51
2021/05/18 02:42:02;;;;;;;0.67;0.50;;;18.70;40.50;;;;;;8325518;28;20045;-48
2021/05/18 02:46:07;;;;;;;0.70;0.33;;;18.70;40.50;;;;;;8325181;28;20029;-49
2021/05/18 02:50:08;;;;;;;0.38;0.30;;;18.70;40.50;;;;;;8323153;28;20045;-50
2021/05/18 02:54:11;;;;;;;0.55;0.40;;;18.70;40.50;;;;;;8329009;28;20129;-50
2021/05/18 02:58:13;;;;;;;0.38;0.38;;;18.60;40.50;;;;;;8324715;28;20037;-48
2021/05/18 03:02:13;;;;;;;2.17;0.50;;;18.60;40.50;;;;;;8322996;28;20042;-48
2021/05/18 03:06:14;;;;;;;0.23;0.23;;;18.60;40.60;;;;;;8324414;28;20116;-50
2021/05/18 03:10:15;;;;;;;0.60;0.40;;;18.60;40.60;;;;;;8324513;28;22704;-49
2021/05/18 03:14:16;;;;;;;0.60;0.30;;;18.60;40.60;;;;;;8327025;28;20060;-49
2021/05/18 03:18:17;;;;;;;0.47;0.30;;;18.60;40.60;;;;;;8324460;28;20395;-50
2021/05/18 03:22:18;;;;;;;0.43;0.43;;;18.60;40.60;;;;;;8324109;28;20034;-49
2021/05/18 03:26:18;;;;;;;0.77;0.50;;;18.60;40.60;;;;;;8322380;28;20471;-50
2021/05/18 03:42:37;;;;;;;0.50;0.40;;;18.60;40.60;;;;;;8324652;28;20046;-49
2021/05/18 03:55:08;;;;;;;0.20;0.20;;;18.60;40.60;;;;;;8328045;28;20040;-49
2021/05/18 04:02:41;;;;;;;0.60;0.40;;;18.70;40.60;;;;;;8327978;28;20033;-49
2021/05/18 04:03:51;;;;;;;0.50;0.50;;;18.60;40.60;;;;;;8329501;28;20046;-49
2021/05/18 04:12:26;;;;;;;1.00;0.40;;;18.60;40.70;;;;;;8333767;28;20072;-49
2021/05/18 04:20:55;;;;;;;0.60;0.40;;;18.60;40.70;;;;;;8311465;28;20445;-50
2021/05/18 04:59:44;;;;;;;0.40;0.30;;;18.60;40.80;;;;;;8326167;28;20044;-50
2021/05/18 05:08:30;;;;;;;0.20;0.20;;;18.60;40.80;;;;;;8261614;28;20154;-49
2021/05/18 05:12:51;;;;;;;1.00;0.50;;;18.60;40.80;;;;;;8284990;28;20065;-49
2021/05/18 05:16:52;;;;;;;0.85;0.40;;;18.60;40.90;;;;;;8296051;28;20034;-48
2021/05/18 05:20:53;;;;;;;0.30;0.30;;;18.60;40.90;;;;;;8326658;28;20102;-49
2021/05/18 05:24:53;;;;;;;0.40;0.40;;;18.60;40.90;;;;;;8311424;28;20110;-48
2021/05/18 05:28:54;;;;;;;0.60;0.50;;;18.60;40.90;;;;;;8316824;28;20498;-49
2021/05/18 05:32:54;;;;;;;0.40;0.40;;;18.60;40.90;;;;;;8294297;28;20034;-49
2021/05/18 05:36:55;;;;;;;0.30;0.30;;;18.60;40.90;;;;;;8293889;28;20046;-51
2021/05/18 05:40:56;;;;;;;0.40;0.30;;;18.60;40.90;;;;;;8295642;28;20544;-49
2021/05/18 05:44:56;;;;;;;0.60;0.40;;;18.60;40.90;;;;;;8330851;28;20088;-47
2021/05/18 05:48:57;;;;;;;0.53;0.37;;;18.60;40.90;;;;;;8305790;28;20038;-48
2021/05/18 05:52:58;;;;;;;0.77;0.38;;;18.60;40.90;;;;;;8316395;28;20025;-49
2021/05/18 05:56:58;;;;;;;0.43;0.40;;;18.60;40.90;;;;;;8306068;28;20030;-48
2021/05/18 06:00:59;;;;;;;0.70;0.50;;;18.60;40.90;;;;;;8330726;28;20022;-48
2021/05/18 06:05:00;;;;;;;0.65;0.50;;;18.60;41.00;;;;;;8324114;28;20038;-49
2021/05/18 06:09:01;;;;;;;0.80;0.40;;;18.60;41.00;;;;;;8312872;28;20050;-51
2021/05/18 06:13:18;;;;;;;0.80;0.50;;;18.60;40.90;;;;;;8313756;28;20082;-49
2021/05/18 06:47:41;;;;;;;0.32;0.30;;;18.80;40.90;;;;;;8323358;28;20487;-53
2021/05/18 06:51:23;;;;;;;0.30;0.30;;;18.70;40.80;;;;;;8321856;28;20091;-48
2021/05/18 06:55:27;;;;;;;0.60;0.40;;;18.80;40.90;;;;;;8324837;28;20064;-50
2021/05/18 07:03:34;;;;;;;0.60;0.60;;;18.70;40.80;;;;;;8329158;28;20449;-50
2021/05/18 07:07:34;;;;;;;1.30;0.80;;;18.70;40.80;;;;;;8322656;28;20410;-49
2021/05/18 07:11:35;;;;;;;2.00;1.17;;;18.80;40.90;;;;;;8324822;28;20041;-49
2021/05/18 07:15:35;;;;;;;2.47;1.40;;;18.70;40.80;;;;;;8324431;28;20079;-48
2021/05/18 07:19:36;;;;;;;4.73;2.70;;;18.70;40.80;;;;;;8322304;28;20038;-48
2021/05/18 07:23:37;;;;;;;7.53;3.60;;;18.70;40.80;;;;;;8328626;28;20032;-49
2021/05/18 07:27:37;;;;;;;5.63;3.07;;;18.80;40.80;;;;;;8326375;28;20548;-49
2021/05/18 07:31:38;;;;;;;6.97;3.43;;;18.80;40.80;;;;;;8328663;28;20095;-49
2021/05/18 07:35:39;;;;;;;10.37;4.30;;;18.80;40.80;;;;;;8330074;28;20387;-49
2021/05/18 07:39:40;;;;;;;7.03;4.30;;;18.80;40.80;;;;;;8334589;28;20037;-49
2021/05/18 07:43:40;;;;;;;9.23;5.30;;;18.80;40.80;;;;;;8328452;28;20029;-49
2021/05/18 07:47:41;;;;;;;8.83;4.70;;;18.80;40.80;;;;;;8329640;28;20083;-49
2021/05/18 08:00:54;;;;;;;8.38;5.10;;;18.80;40.80;;;;;;8333995;28;20632;-52
2021/05/18 08:09:16;;;;;;;9.23;5.03;;;18.70;40.70;;;;;;8329211;28;20409;-50
2021/05/18 08:13:21;;;;;;;9.57;5.00;;;18.70;40.70;;;;;;8305912;28;20026;-50
2021/05/18 08:17:25;;;;;;;9.60;5.15;;;18.70;40.70;;;;;;8326774;28;20037;-49
2021/05/18 08:21:52;;;;;;;10.68;5.28;;;18.70;40.80;;;;;;8333572;28;20073;-50
2021/05/18 08:58:16;;;;;;;10.57;5.93;;;18.80;40.60;;;;;;8325625;28;20072;-50
2021/05/18 10:24:50;;;;;;;9.45;5.05;;;19.20;40.40;;;;;;8292615;28;20080;-49
2021/05/18 10:36:41;;;;;;;11.68;6.05;;;19.20;40.30;;;;;;8311914;28;20038;-47
2021/05/18 10:40:41;;;;;;;9.63;4.85;;;19.30;40.30;;;;;;8292543;28;20061;-47
2021/05/18 10:44:55;;;;;;;11.50;5.57;;;19.30;40.30;;;;;;8314679;28;20522;-47
2021/05/18 10:49:01;;;;;;;9.38;5.47;;;19.30;40.30;;;;;;8291869;28;20053;-48
2021/05/18 10:53:28;;;;;;;9.95;5.40;;;19.30;40.30;;;;;;8290301;28;20048;-48
2021/05/18 10:57:30;;;;;;;9.80;5.28;;;19.40;40.20;;;;;;8296450;28;20037;-47
2021/05/18 11:01:34;;;;;;;9.52;5.60;;;19.40;40.20;;;;;;8291029;28;20034;-47
2021/05/18 11:05:34;;;;;;;10.27;5.93;;;19.40;40.20;;;;;;8298534;28;20034;-49
2021/05/18 11:09:36;;;;;;;9.30;5.10;;;19.40;40.20;;;;;;8315580;28;20049;-48
2021/05/18 11:13:36;;;;;;;10.45;5.75;;;19.40;40.10;;;;;;8330534;28;20504;-48
2021/05/18 11:18:04;;;;;;;9.00;5.10;;;19.40;40.00;;;;;;8335320;28;20033;-47
2021/05/18 11:22:05;;;;;;;7.78;4.70;;;19.40;40.00;;;;;;8331422;28;20045;-48
2021/05/18 11:26:08;;;;;;;9.97;5.07;;;19.40;40.10;;;;;;8324010;28;20482;-47
2021/05/18 11:30:09;;;;;;;9.27;4.97;;;19.40;40.00;;;;;;8311277;28;20045;-47
2021/05/18 11:34:10;;;;;;;9.23;5.07;;;19.40;40.00;;;;;;8334639;28;20087;-48
2021/05/18 11:38:16;;;;;;;9.90;4.57;;;19.40;40.00;;;;;;8328687;28;20029;-47
2021/05/18 11:42:27;;;;;;;8.48;4.80;;;19.40;40.10;;;;;;8315559;28;20049;-47
2021/05/18 11:46:30;;;;;;;9.70;5.30;;;19.40;40.00;;;;;;8320375;28;20519;-49
2021/05/18 11:50:31;;;;;;;10.75;5.40;;;19.40;40.00;;;;;;8321552;28;20092;-47
2021/05/18 11:54:37;;;;;;;6.23;3.83;;;19.50;40.00;;;;;;8301408;28;20057;-47
2021/05/18 11:58:37;;;;;;;7.93;4.85;;;19.50;40.00;;;;;;8320214;28;20132;-48
2021/05/18 12:02:38;;;;;;;8.57;4.63;;;19.50;40.00;;;;;;8297028;28;20037;-47
2021/05/18 12:06:52;;;;;;;9.33;4.93;;;19.50;39.90;;;;;;8296778;28;20057;-47
2021/05/18 12:10:52;;;;;;;9.25;4.75;;;19.60;39.90;;;;;;8295124;28;20053;-49
2021/05/18 12:14:54;;;;;;;8.13;4.53;;;19.60;39.90;;;;;;8300247;28;20121;-48
2021/05/18 12:18:57;;;;;;;7.82;4.18;;;19.60;39.90;;;;;;8296682;28;20509;-49
2021/05/18 12:22:58;;;;;;;7.45;4.22;;;19.70;39.80;;;;;;8294553;28;20044;-47
2021/05/18 12:27:05;;;;;;;6.80;3.97;;;19.70;39.80;;;;;;8308469;28;20045;-49
2021/05/18 12:31:07;;;;;;;8.70;4.18;;;19.70;39.80;;;;;;8311258;28;20058;-47
2021/05/18 12:35:20;;;;;;;8.05;4.45;;;19.70;39.80;;;;;;8324002;28;20037;-47
2021/05/18 12:39:21;;;;;;;7.97;4.60;;;19.70;39.70;;;;;;8328439;28;20383;-47
2021/05/18 12:43:22;;;;;;;9.18;4.45;;;19.70;39.60;;;;;;8328912;28;20041;-49
2021/05/18 12:47:27;;;;;;;8.57;4.78;;;19.70;39.60;;;;;;8326284;28;20045;-47
2021/05/18 12:51:28;;;;;;;6.95;4.28;;;19.70;39.60;;;;;;8332298;28;20033;-48
2021/05/18 12:55:30;;;;;;;8.67;4.23;;;19.70;39.60;;;;;;8301554;28;20045;-49
2021/05/18 12:59:31;;;;;;;6.68;3.97;;;19.80;39.50;;;;;;8319037;28;20046;-51
2021/05/18 13:03:31;;;;;;;7.97;4.63;;;19.70;39.60;;;;;;8294835;28;20137;-50
2021/05/18 13:07:32;;;;;;;9.73;4.80;;;19.70;39.60;;;;;;8322521;28;20057;-47
2021/05/18 13:15:34;;;;;;;6.00;3.50;;;19.80;39.50;;;;;;8294558;28;20034;-49
2021/05/18 13:19:34;;;;;;;8.65;4.22;;;19.80;39.50;;;;;;8316777;28;20132;-48
2021/05/18 13:23:43;;;;;;;6.83;3.77;;;19.80;39.50;;;;;;8303876;28;20033;-48
2021/05/18 13:27:51;;;;;;;7.28;3.90;;;19.70;39.50;;;;;;8297865;28;20077;-47
2021/05/18 13:31:55;;;;;;;6.97;3.92;;;19.80;39.40;;;;;;8314945;28;20463;-47
2021/05/18 13:35:56;;;;;;;6.28;3.58;;;19.80;39.40;;;;;;8293699;28;20490;-46
2021/05/18 13:39:57;;;;;;;6.20;3.85;;;19.80;39.50;;;;;;8293730;28;20072;-47
2021/05/18 13:43:57;;;;;;;8.33;4.10;;;19.80;39.40;;;;;;8300433;28;20025;-51
2021/05/18 13:47:58;;;;;;;7.07;3.30;;;19.80;39.30;;;;;;8313993;28;20568;-48
2021/05/18 13:51:59;;;;;;;6.82;3.65;;;19.80;39.40;;;;;;8314175;28;20040;-47
2021/05/18 13:56:00;;;;;;;5.47;3.23;;;19.80;39.40;;;;;;8295939;28;20470;-47
2021/05/18 14:00:00;;;;;;;7.30;3.80;;;19.80;39.40;;;;;;8294359;28;20470;-48
2021/05/18 14:04:01;;;;;;;7.50;3.80;;;19.80;39.40;;;;;;8296439;28;20071;-48
2021/05/18 14:12:11;;;;;;;8.60;3.50;;;19.80;39.20;;;;;;8325399;28;20497;-50
2021/05/18 14:16:18;;;;;;;5.63;3.10;;;19.80;39.20;;;;;;8325524;28;20029;-47
2021/05/18 14:20:19;;;;;;;6.55;3.20;;;19.80;39.20;;;;;;8328355;28;20065;-47
2021/05/18 14:24:34;;;;;;;5.83;3.07;;;19.80;39.10;;;;;;8325496;28;20045;-47
2021/05/18 14:28:36;;;;;;;6.65;3.58;;;19.90;39.20;;;;;;8323449;28;20401;-48
2021/05/18 14:32:38;;;;;;;5.20;3.40;;;19.90;39.10;;;;;;8325431;28;20037;-47
2021/05/18 14:36:38;;;;;;;5.68;3.17;;;19.90;39.20;;;;;;8324636;28;20437;-47
2021/05/18 14:45:13;;;;;;;6.03;3.20;;;19.90;39.10;;;;;;8334573;28;20079;-47
2021/05/18 14:57:39;;;;;;;5.63;2.78;;;20.00;39.20;;;;;;8324812;28;20034;-47
2021/05/18 15:01:40;;;;;;;4.80;3.00;;;20.00;39.10;;;;;;8327351;28;20042;-48
2021/05/18 15:05:41;;;;;;;6.57;3.00;;;20.00;39.10;;;;;;8324523;28;20065;-46
2021/05/18 15:09:41;;;;;;;4.93;3.00;;;20.00;39.00;;;;;;8324729;28;20046;-50
2021/05/18 15:13:42;;;;;;;4.47;2.60;;;20.00;39.00;;;;;;8322997;28;20041;-47
2021/05/18 15:17:42;;;;;;;4.33;2.70;;;20.00;39.00;;;;;;8318641;28;20057;-48
2021/05/18 15:21:43;;;;;;;4.80;3.23;;;20.00;38.90;;;;;;8291643;28;20058;-47
2021/05/18 15:25:44;;;;;;;5.23;2.93;;;20.00;38.80;;;;;;8316450;28;20068;-48
2021/05/18 15:29:44;;;;;;;4.40;2.67;;;20.00;38.70;;;;;;8324093;28;20284;-49
2021/05/18 15:33:45;;;;;;;5.70;2.70;;;20.10;38.80;;;;;;8324368;28;20025;-47
2021/05/18 15:37:45;;;;;;;4.33;2.73;;;20.00;38.70;;;;;;8326878;28;20038;-48
2021/05/18 15:41:46;;;;;;;5.40;2.97;;;20.00;38.60;;;;;;8313393;28;20506;-48
2021/05/18 15:45:46;;;;;;;5.00;2.87;;;20.10;38.70;;;;;;8291089;28;20034;-48
2021/05/18 15:49:47;;;;;;;4.57;2.50;;;20.10;39.30;;;;;;8293253;28;20092;-47
2021/05/18 15:53:47;;;;;;;4.47;2.77;;;20.00;38.60;;;;;;8312454;28;20508;-50
2021/05/18 15:57:48;;;;;;;4.90;2.30;;;20.00;38.60;;;;;;8329577;28;20080;-47
2021/05/18 16:01:48;;;;;;;5.73;2.47;;;20.00;38.60;;;;;;8300509;28;20068;-49
2021/05/18 16:05:49;;;;;;;4.20;2.40;;;20.00;38.60;;;;;;8296682;28;20060;-50
2021/05/18 16:09:50;;;;;;;5.43;2.43;;;20.00;38.50;;;;;;8301155;28;20049;-47
2021/05/18 16:13:51;;;;;;;4.03;2.50;;;20.00;38.50;;;;;;8291962;28;20529;-48
2021/05/18 16:17:52;;;;;;;4.87;2.57;;;20.00;38.50;;;;;;8296144;28;20045;-47
2021/05/18 16:21:53;;;;;;;3.77;2.10;;;20.00;38.50;;;;;;8315517;28;20068;-46
2021/05/18 16:25:57;;;;;;;3.07;2.10;;;20.00;38.50;;;;;;8323381;28;20038;-46
2021/05/18 16:29:57;;;;;;;4.95;2.15;;;20.00;38.50;;;;;;8312168;28;20606;-47
2021/05/18 16:33:59;;;;;;;4.57;2.33;;;20.00;38.50;;;;;;8328445;28;20049;-46
2021/05/18 16:37:59;;;;;;;4.63;2.25;;;20.00;38.50;;;;;;8322109;28;20193;-48
2021/05/18 16:42:00;;;;;;;3.93;2.23;;;20.00;38.50;;;;;;8295740;28;20022;-46
2021/05/18 16:46:01;;;;;;;2.97;2.00;;;20.00;38.50;;;;;;8299260;28;20037;-49
2021/05/18 16:50:03;;;;;;;3.83;2.17;;;20.00;38.50;;;;;;8295691;28;20045;-47
2021/05/18 16:54:09;;;;;;;4.22;2.25;;;20.00;38.50;;;;;;8327783;28;20120;-49
2021/05/18 16:58:09;;;;;;;3.63;1.95;;;20.00;38.50;;;;;;8305804;28;20030;-48
2021/05/18 17:02:10;;;;;;;3.67;1.83;;;20.00;38.50;;;;;;8293036;28;20064;-51
2021/05/18 17:06:11;;;;;;;5.18;2.30;;;20.00;38.60;;;;;;8299021;28;20133;-52
2021/05/18 17:10:12;;;;;;;5.07;2.10;;;20.00;38.60;;;;;;8315431;28;20072;-52
2021/05/18 17:14:13;;;;;;;4.28;1.98;;;20.00;38.60;;;;;;8319503;28;20026;-52
2021/05/18 17:18:15;;;;;;;3.50;2.03;;;19.90;38.50;;;;;;8309230;28;20048;-52
2021/05/18 17:22:17;;;;;;;3.80;2.00;;;20.00;38.60;;;;;;8331171;28;20091;-52
2021/05/18 17:26:17;;;;;;;3.60;2.60;;;19.90;38.50;;;;;;8324966;28;20117;-48
2021/05/18 17:30:20;;;;;;;3.37;1.83;;;19.90;38.60;;;;;;8311788;28;20041;-50
2021/05/18 17:34:22;;;;;;;3.22;2.00;;;19.90;38.60;;;;;;8317768;28;20482;-48
2021/05/18 17:38:22;;;;;;;4.65;2.45;;;19.90;38.50;;;;;;8327876;28;20052;-48
2021/05/18 17:42:23;;;;;;;2.78;1.83;;;19.90;38.50;;;;;;8328941;28;20033;-48
2021/05/18 17:46:26;;;;;;;3.13;1.97;;;19.90;38.50;;;;;;8326234;28;20548;-51
2021/05/18 17:50:27;;;;;;;4.35;2.00;;;19.90;38.50;;;;;;8291986;28;20053;-50
2021/05/18 17:54:27;;;;;;;5.00;2.30;;;19.90;38.50;;;;;;8309491;28;20125;-48
2021/05/18 17:58:28;;;;;;;2.67;1.87;;;19.90;38.60;;;;;;8330441;28;20033;-50
2021/05/18 18:02:28;;;;;;;2.90;1.57;;;19.90;38.60;;;;;;8324299;28;20428;-48
2021/05/18 18:06:29;;;;;;;2.83;1.97;;;19.90;38.60;;;;;;8325265;28;20029;-49
2021/05/18 18:10:30;;;;;;;3.77;1.63;;;19.90;38.60;;;;;;8313872;28;20561;-47
2021/05/18 18:14:31;;;;;;;3.35;1.40;;;19.90;38.60;;;;;;8329118;28;20045;-47
2021/05/18 18:18:32;;;;;;;3.47;1.60;;;19.90;38.60;;;;;;8326046;28;20263;-49
2021/05/18 18:22:33;;;;;;;;;;;19.90;38.60;;;;;;8323680;28;20037;-49
2021/05/18 18:26:33;;;;;;;2.73;1.50;;;19.90;38.60;;;;;;8325293;28;19946;-49
2021/05/18 18:30:34;;;;;;;2.80;1.63;;;19.90;38.60;;;;;;8324936;28;20048;-48
2021/05/18 18:34:35;;;;;;;4.50;1.73;;;19.80;38.50;;;;;;8328122;28;20025;-48
2021/05/18 18:38:36;;;;;;;2.22;1.42;;;19.90;38.60;;;;;;8325024;28;20592;-49
2021/05/18 18:42:38;;;;;;;2.40;1.67;;;19.90;38.60;;;;;;8324929;28;20136;-47
2021/05/18 18:46:38;;;;;;;2.95;1.55;;;19.80;38.50;;;;;;8323121;28;20040;-49
2021/05/18 18:50:41;;;;;;;6.07;1.70;;;19.80;38.50;;;;;;8329047;28;20467;-48
2021/05/18 18:54:42;;;;;;;3.60;1.75;;;19.80;38.50;;;;;;8324873;28;20048;-48
2021/05/18 18:58:43;;;;;;;2.77;1.43;;;19.80;38.50;;;;;;8323495;28;20029;-47
2021/05/18 19:07:31;;;;;;;2.13;1.37;;;19.80;38.50;;;;;;8310579;28;20033;-48
2021/05/18 19:11:35;;;;;;;3.50;1.60;;;19.80;38.50;;;;;;8264291;28;20047;-48
2021/05/18 19:15:36;;;;;;;2.67;1.25;;;19.80;38.50;;;;;;8306083;28;20072;-48
2021/05/18 19:19:36;;;;;;;2.60;1.43;;;19.80;38.50;;;;;;8322569;28;20030;-50
2021/05/18 19:23:37;;;;;;;3.00;1.50;;;19.80;38.50;;;;;;8326962;28;20044;-49
2021/05/18 19:27:43;;;;;;;2.30;1.53;;;19.80;38.50;;;;;;8332802;28;20092;-47
2021/05/18 19:31:43;;;;;;;2.25;1.38;;;19.80;38.50;;;;;;8333245;28;20129;-47
2021/05/18 19:44:45;;;;;;;2.15;1.33;;;19.80;38.50;;;;;;8328396;28;20040;-49
2021/05/18 19:49:03;;;;;;;2.50;1.60;;;19.80;38.50;;;;;;8329910;28;20202;-48
2021/05/18 19:53:17;;;;;;;2.85;1.58;;;19.70;38.40;;;;;;8332865;28;20077;-47
2021/05/18 20:22:54;;;;;;;2.05;1.10;;;19.70;38.40;;;;;;8327917;28;20049;-49
2021/05/18 20:26:55;;;;;;;3.77;1.20;;;19.70;38.40;;;;;;8329183;28;20116;-48
2021/05/18 20:30:59;;;;;;;1.90;1.10;;;19.70;38.40;;;;;;8328814;28;20414;-48
2021/05/18 20:43:07;;;;;;;1.45;1.20;;;19.70;38.40;;;;;;8328593;28;20037;-49
2021/05/18 20:47:08;;;;;;;1.80;1.25;;;19.70;38.40;;;;;;8326782;28;20509;-48
2021/05/18 20:51:09;;;;;;;2.70;1.27;;;19.70;38.40;;;;;;8328336;28;20038;-50
2021/05/18 20:55:14;;;;;;;1.77;1.07;;;19.70;38.40;;;;;;8332393;28;20490;-49
2021/05/18 20:59:14;;;;;;;2.03;1.13;;;19.70;38.40;;;;;;8326166;28;20312;-47
2021/05/18 21:03:15;;;;;;;1.33;1.10;;;19.70;38.30;;;;;;8327778;28;20092;-48
2021/05/18 21:15:52;;;;;;;3.45;1.10;;;19.60;38.10;;;;;;8330582;28;20414;-47
2021/05/18 21:19:52;;;;;;;1.13;0.90;;;19.70;38.20;;;;;;8325630;28;20037;-49
2021/05/18 21:23:53;;;;;;;1.27;0.87;;;19.70;38.20;;;;;;8327042;28;20049;-48
2021/05/18 21:27:53;;;;;;;2.03;0.90;;;19.60;38.10;;;;;;8327178;28;20276;-48
2021/05/18 21:31:54;;;;;;;2.63;1.17;;;19.60;38.20;;;;;;8329794;28;20036;-49
2021/05/18 21:35:55;;;;;;;1.67;1.10;;;19.60;38.10;;;;;;8327027;28;20037;-48
2021/05/18 21:39:59;;;;;;;1.67;1.30;;;19.60;38.10;;;;;;8326758;28;20033;-49
2021/05/18 21:43:59;;;;;;;1.35;1.08;;;19.60;38.20;;;;;;8325136;28;20501;-48
2021/05/18 21:48:00;;;;;;;1.47;1.07;;;19.60;38.20;;;;;;8330865;28;20047;-50
2021/05/18 21:52:01;;;;;;;0.87;0.80;;;19.60;38.10;;;;;;8342165;28;20041;-49
2021/05/18 21:56:02;;;;;;;2.93;1.30;;;19.60;38.10;;;;;;8324662;28;20041;-52
2021/05/18 22:00:13;;;;;;;1.10;0.98;;;19.60;38.10;;;;;;8326114;28;20548;-48
2021/05/18 22:04:13;;;;;;;0.95;0.85;;;19.60;38.10;;;;;;8325089;28;20040;-48
2021/05/18 22:08:26;;;;;;;1.53;0.90;;;19.60;38.10;;;;;;8328604;28;20049;-49
2021/05/18 22:12:36;;;;;;;2.97;0.90;;;19.60;38.10;;;;;;8325626;28;20049;-48
2021/05/18 22:29:18;;;;;;;1.20;1.00;;;19.60;38.20;;;;;;8327960;28;20043;-48
2021/05/18 22:33:19;;;;;;;2.43;0.80;;;19.50;38.20;;;;;;8325181;28;20029;-48
2021/05/18 22:37:20;;;;;;;1.80;1.00;;;19.50;38.20;;;;;;8325216;28;20395;-49
2021/05/18 22:41:20;;;;;;;2.15;0.90;;;19.50;38.20;;;;;;8316425;28;20041;-48
2021/05/18 22:45:21;;;;;;;1.43;0.93;;;19.50;38.20;;;;;;8307858;28;20034;-48
2021/05/18 22:49:22;;;;;;;1.27;0.77;;;19.50;38.20;;;;;;8329058;28;20049;-48
2021/05/18 22:53:23;;;;;;;1.47;0.90;;;19.50;38.30;;;;;;8315806;28;20080;-48
2021/05/18 22:57:24;;;;;;;1.35;1.08;;;19.50;38.30;;;;;;8292376;28;20041;-50
2021/05/18 23:01:25;;;;;;;0.60;0.60;;;19.50;38.30;;;;;;8298935;28;20073;-48
2021/05/18 23:05:25;;;;;;;2.23;0.80;;;19.50;38.30;;;;;;8326148;28;20030;-49
2021/05/18 23:09:26;;;;;;;1.20;0.77;;;19.40;38.30;;;;;;8315136;28;20099;-48
2021/05/18 23:13:27;;;;;;;1.33;1.00;;;19.40;38.30;;;;;;8331356;28;20064;-48
2021/05/18 23:17:28;;;;;;;;;;;19.40;38.30;;;;;;8329927;28;20034;-49
2021/05/18 23:21:29;;;;;;;1.10;0.80;;;19.40;38.30;;;;;;8335558;28;19940;-48
2021/05/18 23:25:29;;;;;;;0.97;0.70;;;19.40;38.30;;;;;;8329173;28;20037;-46
2021/05/18 23:29:30;;;;;;;3.23;1.27;;;19.40;38.30;;;;;;8330938;28;20522;-48
2021/05/18 23:33:30;;;;;;;1.13;0.73;;;19.40;38.30;;;;;;8331022;28;20033;-48
2021/05/18 23:37:31;;;;;;;2.33;1.07;;;19.40;38.30;;;;;;8328879;28;20034;-49
2021/05/18 23:41:32;;;;;;;1.23;0.93;;;19.40;38.40;;;;;;8334814;28;20152;-48
2021/05/18 23:45:32;;;;;;;0.70;0.70;;;19.40;38.40;;;;;;8313301;28;20132;-49
2021/05/18 23:49:33;;;;;;;0.97;0.60;;;19.40;38.40;;;;;;8296236;28;20115;-49
2021/05/18 23:53:33;;;;;;;3.47;1.07;;;19.40;38.40;;;;;;8330347;28;20406;-48
2021/05/18 23:57:34;;;;;;;0.70;0.70;;;19.30;38.40;;;;;;8317203;28;20552;-48
